createdAt,value
2023-04-21T00:02:18.720Z,70.13
2023-04-21T00:07:16.218Z,70.31
2023-04-21T00:12:14.821Z,70.53
2023-04-21T00:17:11.258Z,70.29
2023-04-21T00:22:12.126Z,70.67
2023-04-21T00:27:08.590Z,70.54
2023-04-21T00:32:08.324Z,70.40
2023-04-21T00:37:04.770Z,70.21
2023-04-21T00:42:01.570Z,70.08
2023-04-21T00:46:58.093Z,70.36
2023-04-21T00:51:54.976Z,70.62
2023-04-21T00:56:51.452Z,70.37
2023-04-21T01:01:48.085Z,70.58
2023-04-21T01:12:11.799Z,70.82
2023-04-21T01:17:08.673Z,70.65
2023-04-21T01:22:06.436Z,70.54
2023-04-21T01:27:03.345Z,70.63
2023-04-21T01:32:04.829Z,70.61
2023-04-21T01:37:01.520Z,71.05
2023-04-21T01:41:57.962Z,70.74
2023-04-21T01:46:55.552Z,70.73
2023-04-21T01:51:52.006Z,70.74
2023-04-21T01:56:48.570Z,70.97
2023-04-21T02:01:45.220Z,70.77
2023-04-21T02:06:41.740Z,70.98
2023-04-21T02:11:38.189Z,70.99
2023-04-21T02:16:34.671Z,71.00
2023-04-21T02:21:32.324Z,70.91
2023-04-21T02:26:28.817Z,70.85
2023-04-21T02:31:25.457Z,70.91
2023-04-21T02:36:22.002Z,70.93
2023-04-21T02:41:18.527Z,70.48
2023-04-21T02:46:15.103Z,70.71
2023-04-21T02:51:13.306Z,70.89
2023-04-21T02:56:09.907Z,70.99
2023-04-21T03:01:06.475Z,70.68
2023-04-21T03:06:04.676Z,70.74
2023-04-21T03:11:02.189Z,70.72
2023-04-21T03:15:58.665Z,70.82
2023-04-21T03:20:59.872Z,70.72
2023-04-21T03:25:56.428Z,70.38
2023-04-21T03:30:52.850Z,70.51
2023-04-21T03:35:49.279Z,70.54
2023-04-21T03:40:45.784Z,70.46
2023-04-21T03:45:42.289Z,70.61
2023-04-21T03:50:38.960Z,70.00
2023-04-21T03:55:35.397Z,69.97
2023-04-21T04:00:31.884Z,70.20
2023-04-21T04:05:28.384Z,70.09
2023-04-21T04:10:24.814Z,70.06
2023-04-21T04:15:21.333Z,70.25
2023-04-21T04:20:17.953Z,69.98
2023-04-21T04:25:16.976Z,70.10
2023-04-21T04:30:16.064Z,70.15
2023-04-21T04:59:44.836Z,69.73
2023-04-21T05:04:44.880Z,70.07
2023-04-21T08:40:09.819Z,55.53
2023-04-21T08:45:21.648Z,55.15
2023-04-21T08:50:53.089Z,55.32
2023-04-21T08:56:11.377Z,55.12
2023-04-21T09:01:19.679Z,54.91
2023-04-21T09:06:21.768Z,55.04
2023-04-21T09:11:38.764Z,54.62
2023-04-21T09:16:38.559Z,54.78
2023-04-21T09:21:42.985Z,54.33
2023-04-21T09:26:43.572Z,53.71
2023-04-21T09:31:44.422Z,53.60
2023-04-21T09:36:45.507Z,53.75
2023-04-21T09:41:44.265Z,53.25
2023-04-21T09:46:48.984Z,53.21
2023-04-21T09:56:49.616Z,53.02
2023-04-21T10:01:50.182Z,52.77
2023-04-21T10:06:48.123Z,52.83
2023-04-21T10:11:44.628Z,52.32
2023-04-21T10:16:42.052Z,51.97
2023-04-21T10:21:38.592Z,51.61
2023-04-21T10:26:35.339Z,51.86
2023-04-21T10:31:34.612Z,51.18
2023-04-21T10:36:34.829Z,50.83
2023-04-21T10:41:33.953Z,50.88
2023-04-21T10:46:35.513Z,50.25
2023-04-21T10:51:33.054Z,49.54
2023-04-21T10:56:29.643Z,49.88
2023-04-21T11:01:26.161Z,49.83
2023-04-21T11:06:22.679Z,48.68
2023-04-21T11:11:26.740Z,48.54
2023-04-21T11:16:23.196Z,48.39
2023-04-21T11:21:22.966Z,48.45
2023-04-21T11:26:20.982Z,47.65
2023-04-21T11:31:17.573Z,47.95
2023-04-21T11:36:15.174Z,47.35
2023-04-21T11:41:20.809Z,46.88
2023-04-21T11:46:46.903Z,46.77
2023-04-21T11:51:51.314Z,45.07
2023-04-21T11:56:51.554Z,44.69
2023-04-21T12:01:55.425Z,43.81
2023-04-21T12:07:09.967Z,43.86
2023-04-21T12:12:06.441Z,43.24
2023-04-21T12:17:02.892Z,41.86
2023-04-21T12:22:04.028Z,42.77
2023-04-21T12:27:02.077Z,42.36
2023-04-21T12:32:00.894Z,42.48
2023-04-21T12:36:57.535Z,42.18
2023-04-21T12:41:54.063Z,42.32
2023-04-21T12:46:52.662Z,42.28
2023-04-21T12:51:49.508Z,41.01
2023-04-21T13:02:17.493Z,39.03
2023-04-21T13:07:18.386Z,38.97
2023-04-21T13:12:26.483Z,38.79
2023-04-21T13:17:26.203Z,38.91
2023-04-21T13:22:37.643Z,38.61
2023-04-21T13:27:38.563Z,38.11
2023-04-21T13:32:55.511Z,38.31
2023-04-21T13:37:54.327Z,38.35
2023-04-21T13:42:53.063Z,37.63
2023-04-21T13:47:51.783Z,37.95
2023-04-21T13:52:49.029Z,37.99
2023-04-21T13:57:45.867Z,37.29
2023-04-21T14:02:42.898Z,37.98
2023-04-21T14:08:26.639Z,38.21
2023-04-21T14:13:35.746Z,38.18
2023-04-21T14:18:34.291Z,37.73
2023-04-21T14:23:30.781Z,37.44
2023-04-21T14:28:30.877Z,37.44
2023-04-21T14:33:35.233Z,37.46
2023-04-21T14:38:33.662Z,37.30
2023-04-21T14:43:30.253Z,37.13
2023-04-21T14:48:27.193Z,37.28
2023-04-21T14:53:25.665Z,37.36
2023-04-21T14:58:31.076Z,37.63
2023-04-21T15:03:35.212Z,37.65
2023-04-21T15:08:31.869Z,38.14
2023-04-21T15:13:28.401Z,37.53
2023-04-21T15:18:25.008Z,37.58
2023-04-21T15:23:21.468Z,37.34
2023-04-21T15:28:17.917Z,37.34
2023-04-21T15:33:14.728Z,37.18
2023-04-21T15:38:11.463Z,37.66
2023-04-21T15:43:08.071Z,37.76
2023-04-21T15:48:04.611Z,37.72
2023-04-21T15:53:04.450Z,38.01
2023-04-21T15:58:01.059Z,37.78
2023-04-21T16:02:58.603Z,37.42
2023-04-21T16:07:55.452Z,37.70
2023-04-21T16:12:52.265Z,38.06
2023-04-21T16:17:49.309Z,37.98
2023-04-21T16:22:46.590Z,37.78
2023-04-21T16:27:44.183Z,38.29
2023-04-21T16:32:40.801Z,38.24
2023-04-21T16:37:40.435Z,38.14
2023-04-21T16:42:37.477Z,38.21
2023-04-21T16:47:41.729Z,38.14
2023-04-21T16:52:38.714Z,38.31
2023-04-21T16:57:35.243Z,38.23
2023-04-21T17:02:31.815Z,38.43
2023-04-21T17:07:28.543Z,38.53
2023-04-21T17:12:25.066Z,38.44
2023-04-21T17:17:21.512Z,38.29
2023-04-21T17:22:18.000Z,38.52
2023-04-21T17:27:14.453Z,38.72
2023-04-21T17:32:10.980Z,38.88
2023-04-21T17:37:07.464Z,38.51
2023-04-21T17:42:04.824Z,38.61
2023-04-21T17:47:02.103Z,38.68
2023-04-21T17:51:58.598Z,39.17
2023-04-21T17:56:55.223Z,40.14
2023-04-21T18:02:02.274Z,40.38
2023-04-21T18:07:03.155Z,40.81
2023-04-21T18:12:00.999Z,41.42
2023-04-21T18:16:58.102Z,41.71
2023-04-21T18:21:57.333Z,41.97
2023-04-21T18:26:56.791Z,42.61
2023-04-21T18:32:00.538Z,42.94
2023-04-21T18:36:57.353Z,43.39
2023-04-21T18:41:56.600Z,43.61
2023-04-21T18:46:53.889Z,43.50
2023-04-21T18:51:53.401Z,43.81
2023-04-21T18:56:49.972Z,43.93
2023-04-21T19:01:46.685Z,44.25
2023-04-21T19:06:43.330Z,44.57
2023-04-21T19:11:39.938Z,44.52
2023-04-21T19:16:36.659Z,44.85
2023-04-21T19:21:40.551Z,44.79
2023-04-21T19:26:39.235Z,45.21
2023-04-21T19:31:35.790Z,44.97
2023-04-21T19:36:32.640Z,45.17
2023-04-21T19:41:29.213Z,45.25
2023-04-21T19:46:25.724Z,45.39
2023-04-21T19:51:25.070Z,45.50
2023-04-21T19:56:21.620Z,45.44
2023-04-21T20:01:18.009Z,45.78
2023-04-21T20:06:14.602Z,45.88
2023-04-21T20:11:11.340Z,45.74
2023-04-21T20:16:07.897Z,45.50
2023-04-21T20:21:04.419Z,45.79
2023-04-21T20:26:01.250Z,45.61
2023-04-21T20:30:57.823Z,45.57
2023-04-21T20:35:54.108Z,45.67
2023-04-21T20:40:53.700Z,45.21
2023-04-21T20:45:50.725Z,45.25
2023-04-21T20:50:49.810Z,45.49
2023-04-21T20:55:51.961Z,45.32
2023-04-21T21:00:48.577Z,45.22
2023-04-21T21:05:44.961Z,45.16
2023-04-21T21:10:41.491Z,45.25
2023-04-21T21:15:37.955Z,45.73
2023-04-21T21:20:34.509Z,45.14
2023-04-21T21:25:30.868Z,45.46
2023-04-21T21:30:29.705Z,45.28
2023-04-21T21:35:29.218Z,45.36
2023-04-21T21:40:28.472Z,45.28
2023-04-21T21:45:25.009Z,45.01
2023-04-21T21:50:21.591Z,44.96
2023-04-21T21:55:20.572Z,45.05
2023-04-21T22:00:20.570Z,45.38
2023-04-21T22:05:17.579Z,45.21
2023-04-21T22:10:14.072Z,45.60
2023-04-21T22:15:13.918Z,45.36
2023-04-21T22:20:12.061Z,45.25
2023-04-21T22:25:09.006Z,45.50
2023-04-21T22:30:06.151Z,45.39
2023-04-21T22:35:03.290Z,45.67
2023-04-21T22:40:00.638Z,45.57
2023-04-21T22:44:57.134Z,45.71
2023-04-21T22:49:54.102Z,45.58
2023-04-21T22:54:50.677Z,45.61
2023-04-21T22:59:47.149Z,45.68
2023-04-21T23:04:43.594Z,45.73
2023-04-21T23:09:40.363Z,45.85
2023-04-21T23:14:37.034Z,46.10
2023-04-21T23:19:33.509Z,46.26
2023-04-21T23:24:30.021Z,46.01
2023-04-21T23:29:28.859Z,46.29
2023-04-21T23:34:25.560Z,46.01
2023-04-21T23:39:22.486Z,46.20
2023-04-21T23:44:19.125Z,46.44
2023-04-21T23:49:19.791Z,46.62
2023-04-21T23:54:19.517Z,46.10
2023-04-21T23:59:18.472Z,46.49
